Orbital elements of FENGYUN 1C DEB
| Launched | 9 May 1999 |
| Flight ended | – |
| Launch site | Taiyuan Space Center, PRC |
| Owner | People's Republic of China |
| NORAD ID | 30377 |
| Date fetched |
Epoch osculation |
Inc. [°] |
Ecc. | RA asc node [hr] |
Arg Peri. [°] |
Mean anom [°] |
Mean motion [rev/day] |
Abs. mag |
| Date fetched |
Epoch osculation |
Inc. [°] |
Ecc. | RA asc node [hr] |
Arg Peri. [°] |
Mean anom [°] |
Mean motion [rev/day] |
Abs. mag |
| 2026 May 08 17:57 | 2026 May 04 23:31:28 | 98.8818 | 0.01170 | 9.6864 | 229.4713 | 159.0158 | 13.99337 | – |
| 2026 May 07 17:58 | 2026 May 04 23:31:28 | 98.8818 | 0.01170 | 9.6864 | 229.4713 | 159.0158 | 13.99337 | – |
| 2026 May 06 17:57 | 2026 May 04 23:31:28 | 98.8818 | 0.01170 | 9.6864 | 229.4713 | 159.0158 | 13.99337 | – |
| 2026 May 05 17:57 | 2026 May 04 23:31:28 | 98.8818 | 0.01170 | 9.6864 | 229.4713 | 159.0158 | 13.99337 | – |
| 2026 May 04 17:57 | 2026 Apr 30 12:03:23 | 98.8819 | 0.01170 | 9.3967 | 241.9707 | 159.0158 | 13.99337 | – |
| 2026 May 03 17:57 | 2026 Apr 30 12:03:23 | 98.8819 | 0.01170 | 9.3967 | 241.9707 | 159.0158 | 13.99337 | – |
| 2026 May 02 17:57 | 2026 Apr 30 12:03:23 | 98.8819 | 0.01170 | 9.3967 | 241.9707 | 159.0158 | 13.99337 | – |
| 2026 May 01 17:56 | 2026 Apr 30 12:03:23 | 98.8819 | 0.01170 | 9.3967 | 241.9707 | 159.0158 | 13.99337 | – |
| 2026 Apr 30 17:56 | 2026 Apr 30 12:03:23 | 98.8819 | 0.01170 | 9.3967 | 241.9707 | 159.0158 | 13.99337 | – |
| 2026 Apr 29 17:57 | 2026 Apr 24 00:57:00 | 98.8828 | 0.01171 | 8.9786 | 260.0611 | 159.0158 | 13.99337 | – |
| 2026 Apr 28 17:56 | 2026 Apr 24 00:57:00 | 98.8828 | 0.01171 | 8.9786 | 260.0611 | 159.0158 | 13.99337 | – |
| 2026 Apr 27 17:58 | 2026 Apr 24 00:57:00 | 98.8828 | 0.01171 | 8.9786 | 260.0611 | 159.0158 | 13.99337 | – |
| 2026 Apr 26 17:58 | 2026 Apr 24 00:57:00 | 98.8828 | 0.01171 | 8.9786 | 260.0611 | 159.0158 | 13.99337 | – |
| 2026 Apr 25 17:58 | 2026 Apr 24 00:57:00 | 98.8828 | 0.01171 | 8.9786 | 260.0611 | 159.0158 | 13.99337 | – |
| 2026 Apr 24 17:59 | 2026 Apr 24 00:57:00 | 98.8828 | 0.01171 | 8.9786 | 260.0611 | 159.0158 | 13.99337 | – |
| 2026 Apr 23 17:57 | 2026 Apr 19 07:39:40 | 98.8834 | 0.01172 | 8.6732 | 273.2765 | 159.0158 | 13.99337 | – |
| 2026 Apr 22 17:57 | 2026 Apr 19 07:39:40 | 98.8834 | 0.01172 | 8.6732 | 273.2765 | 159.0158 | 13.99337 | – |
| 2026 Apr 21 17:57 | 2026 Apr 19 07:39:40 | 98.8834 | 0.01172 | 8.6732 | 273.2765 | 159.0158 | 13.99337 | – |
| 2026 Apr 20 17:57 | 2026 Apr 19 07:39:40 | 98.8834 | 0.01172 | 8.6732 | 273.2765 | 159.0158 | 13.99337 | – |
| 2026 Apr 19 17:58 | 2026 Apr 19 07:39:40 | 98.8834 | 0.01172 | 8.6732 | 273.2765 | 159.0158 | 13.99337 | – |
| 2026 Apr 18 17:56 | 2026 Apr 13 07:30:41 | 98.8845 | 0.01174 | 8.2846 | 290.1129 | 159.0158 | 13.99337 | – |
| 2026 Apr 16 17:57 | 2026 Apr 13 07:30:41 | 98.8845 | 0.01174 | 8.2846 | 290.1129 | 159.0158 | 13.99337 | – |
| 2026 Apr 14 17:57 | 2026 Apr 13 07:30:41 | 98.8845 | 0.01174 | 8.2846 | 290.1129 | 159.0158 | 13.99337 | – |
| 2026 Apr 13 17:57 | 2026 Apr 13 07:30:41 | 98.8845 | 0.01174 | 8.2846 | 290.1129 | 159.0158 | 13.99337 | – |
| 2026 Apr 12 17:57 | 2026 Apr 08 14:45:22 | 98.8853 | 0.01175 | 7.9806 | 303.3044 | 159.0158 | 13.99337 | – |
| 2026 Apr 11 17:57 | 2026 Apr 08 14:45:22 | 98.8853 | 0.01175 | 7.9806 | 303.3044 | 159.0158 | 13.99337 | – |